| time (UTC) | temp C | wind direction | speed KPH | gust KPH | rain 1hr cm | rain 24hr cm | rain mn cm | humidity % | barometer mb |
| 20260510120036 | 8 | 358 | 8.0 | 19.3 | 0.00 | 0.86 | 0.00 | 72 | 1015.5 |
| 20260510114538 | 8 | 49 | 6.4 | 16.1 | 0.00 | 0.86 | 0.00 | 75 | 1015.0 |
| 20260510113037 | 8 | 312 | 8.0 | 22.5 | 0.00 | 0.86 | 0.00 | 77 | 1014.6 |
| 20260510111544 | 8 | 31 | 4.8 | 17.7 | 0.00 | 0.86 | 0.00 | 80 | 1014.3 |
| 20260510110037 | 8 | 15 | 3.2 | 9.7 | 0.00 | 0.86 | 0.00 | 83 | 1014.2 |
| 20260510104545 | 8 | 329 | 0.0 | 6.4 | 0.00 | 0.86 | 0.00 | 84 | 1013.8 |
| 20260510103034 | 8 | 56 | 1.6 | 8.0 | 0.00 | 0.86 | 0.00 | 84 | 1013.4 |
| 20260510101539 | 8 | 342 | 1.6 | 8.0 | 0.00 | 0.86 | 0.00 | 84 | 1013.1 |
| 20260510100035 | 8 | 359 | 0.0 | 11.3 | 0.00 | 0.86 | 0.00 | 83 | 1013.2 |
| 20260510094537 | 8 | 338 | 3.2 | 9.7 | 0.00 | 0.86 | 0.00 | 82 | 1012.9 |
| 20260510093043 | 8 | 301 | 4.8 | 8.0 | 0.00 | 0.86 | 0.00 | 82 | 1012.7 |
| 20260510091536 | 8 | 0 | 0.0 | 1.6 | 0.00 | 0.86 | 0.00 | 85 | 1012.4 |
| 20260510090036 | 8 | 0 | 0.0 | 0.0 | 0.00 | 0.86 | 0.00 | 85 | 1012.2 |
| 20260510084539 | 8 | 0 | 0.0 | 0.0 | 0.00 | 0.86 | 0.00 | 82 | 1011.9 |
| 20260510083044 | 8 | 0 | 0.0 | 0.0 | 0.00 | 0.86 | 0.00 | 81 | 1011.8 |
| 20260510081546 | 8 | 0 | 0.0 | 0.0 | 0.00 | 0.86 | 0.00 | 81 | 1011.6 |
| 20260510080037 | 9 | 0 | 0.0 | 0.0 | 0.00 | 0.86 | 0.00 | 79 | 1011.3 |
| 20260510074537 | 9 | 0 | 0.0 | 0.0 | 0.00 | 0.86 | 0.00 | 78 | 1010.9 |
| 20260510073050 | 10 | 0 | 0.0 | 1.6 | 0.00 | 0.86 | 0.00 | 77 | 1010.9 |
| 20260510071538 | 10 | 321 | 1.6 | 8.0 | 0.00 | 0.86 | 0.00 | 76 | 1010.6 |
| 20260510070040 | 10 | 342 | 3.2 | 11.3 | 0.00 | 0.86 | 0.00 | 75 | 1010.5 |
| 20260510064550 | 10 | 0 | 3.2 | 12.9 | 0.00 | 0.86 | 0.00 | 77 | 1010.2 |
| 20260510063042 | 10 | 360 | 1.6 | 6.4 | 0.00 | 0.86 | 0.00 | 81 | 1010.2 |
| 20260510061541 | 10 | 351 | 1.6 | 16.1 | 0.00 | 0.86 | 0.00 | 82 | 1010.3 |
| 20260510060043 | 10 | 333 | 3.2 | 14.5 | 0.00 | 0.86 | 0.00 | 83 | 1010.2 |
| 20260510054539 | 12 | 18 | 9.7 | 24.1 | 0.00 | 0.86 | 0.00 | 86 | 1009.6 |
| 20260510053043 | 12 | 37 | 0.0 | 4.8 | 0.00 | 0.86 | 0.00 | 89 | 1009.2 |
| 20260510051542 | 12 | 0 | 0.0 | 9.7 | 0.00 | 0.86 | 0.00 | 87 | 1009.1 |
| 20260510050038 | 12 | 310 | 3.2 | 9.7 | 0.00 | 0.86 | 0.00 | 86 | 1008.9 |
| 20260510044617 | 12 | 0 | 1.6 | 4.8 | 0.00 | 0.89 | 0.00 | 90 | 1008.2 |
| 20260510043037 | 12 | 199 | 0.0 | 1.6 | 0.00 | 0.89 | 0.00 | 91 | 1007.7 |
| 20260510041534 | 12 | 0 | 0.0 | 0.0 | 0.00 | 0.89 | 0.00 | 91 | 1007.6 |
| 20260510040043 | 12 | 0 | 0.0 | 3.2 | 0.00 | 0.89 | 0.00 | 88 | 1007.5 |
| 20260510034537 | 13 | 229 | 0.0 | 11.3 | 0.00 | 0.89 | 0.89 | 87 | 1007.5 |
| 20260510033054 | 12 | 165 | 1.6 | 11.3 | 0.00 | 0.89 | 0.89 | 89 | 1007.6 |
| 20260510031539 | 12 | 136 | 1.6 | 8.0 | 0.03 | 0.89 | 0.89 | 90 | 1007.6 |
| 20260510030044 | 12 | 203 | 0.0 | 4.8 | 0.03 | 0.89 | 0.89 | 91 | 1007.6 |
| 20260510024535 | 12 | 0 | 0.0 | 1.6 | 0.03 | 0.89 | 0.89 | 93 | 1007.5 |
| 20260510023037 | 12 | 260 | 1.6 | 14.5 | 0.03 | 0.89 | 0.89 | 94 | 1007.5 |
| 20260510021536 | 12 | 206 | 0.0 | 6.4 | 0.00 | 0.86 | 0.86 | 96 | 1008.0 |
| 20260510020037 | 11 | 0 | 0.0 | 0.0 | 0.00 | 0.86 | 0.86 | 95 | 1007.3 |
| 20260510014539 | 11 | 0 | 0.0 | 0.0 | 0.00 | 0.89 | 0.86 | 95 | 1007.1 |
| 20260510013037 | 11 | 0 | 0.0 | 0.0 | 0.00 | 0.89 | 0.86 | 95 | 1006.8 |
| 20260510011538 | 11 | 0 | 0.0 | 0.0 | 0.00 | 0.89 | 0.86 | 94 | 1006.9 |
| 20260510010037 | 12 | 0 | 0.0 | 0.0 | 0.00 | 0.89 | 0.86 | 94 | 1006.7 |
| 20260510004541 | 12 | 0 | 0.0 | 0.0 | 0.00 | 0.97 | 0.86 | 93 | 1006.5 |
| 20260510003045 | 12 | 0 | 0.0 | 8.0 | 0.00 | 0.97 | 0.86 | 93 | 1006.6 |
| 20260510001537 | 12 | 0 | 1.6 | 8.0 | 0.05 | 0.97 | 0.86 | 93 | 1006.5 |
| 20260510000040 | 12 | 221 | 0.0 | 6.4 | 0.28 | 0.97 | 0.86 | 94 | 1006.5 |
| 20260509234552 | 12 | 213 | 0.0 | 6.4 | 0.53 | 1.12 | 0.86 | 94 | 1006.4 |
| 20260509233041 | 12 | 0 | 1.6 | 8.0 | 0.84 | 1.12 | 0.86 | 93 | 1006.6 |
| 20260509231536 | 12 | 251 | 3.2 | 24.1 | 0.79 | 1.07 | 0.81 | 92 | 1006.5 |
| 20260509230040 | 12 | 217 | 8.0 | 32.2 | 0.56 | 0.84 | 0.58 | 92 | 1006.6 |
| 20260509224536 | 13 | 353 | 25.7 | 56.3 | 0.28 | 0.74 | 0.30 | 86 | 1006.2 |
| 20260509223043 | 20 | 286 | 6.4 | 22.5 | 0.00 | 0.46 | 0.03 | 50 | 1004.3 |
| 20260509221537 | 20 | 163 | 6.4 | 19.3 | 0.00 | 0.46 | 0.03 | 49 | 1003.8 |
| 20260509220038 | 20 | 238 | 6.4 | 24.1 | 0.00 | 0.46 | 0.03 | 51 | 1004.0 |
| 20260509214535 | 21 | 201 | 8.0 | 29.0 | 0.00 | 0.48 | 0.03 | 49 | 1003.9 |
| 20260509213037 | 22 | 221 | 9.7 | 17.7 | 0.00 | 0.48 | 0.03 | 48 | 1003.7 |
| 20260509211536 | 21 | 252 | 8.0 | 19.3 | 0.00 | 0.48 | 0.03 | 49 | 1003.7 |
| 20260509210037 | 21 | 217 | 8.0 | 20.9 | 0.00 | 0.48 | 0.03 | 49 | 1003.8 |
| 20260509204540 | 22 | 147 | 6.4 | 17.7 | 0.00 | 0.48 | 0.03 | 51 | 1004.2 |
| 20260509203034 | 21 | 242 | 4.8 | 16.1 | 0.00 | 0.48 | 0.03 | 51 | 1004.3 |
| 20260509201542 | 21 | 232 | 8.0 | 19.3 | 0.00 | 0.48 | 0.03 | 52 | 1004.7 |
| 20260509200045 | 21 | 195 | 12.9 | 20.9 | 0.00 | 0.48 | 0.03 | 51 | 1004.9 |
| 20260509194537 | 20 | 178 | 8.0 | 22.5 | 0.00 | 0.48 | 0.03 | 51 | 1005.0 |
| 20260509193041 | 20 | 223 | 9.7 | 20.9 | 0.00 | 0.48 | 0.03 | 53 | 1005.2 |
| 20260509191540 | 20 | 203 | 8.0 | 17.7 | 0.00 | 0.48 | 0.03 | 56 | 1005.4 |
| 20260509190037 | 20 | 147 | 6.4 | 14.5 | 0.00 | 0.48 | 0.03 | 57 | 1005.8 |
| 20260509184542 | 20 | 215 | 4.8 | 32.2 | 0.00 | 0.48 | 0.03 | 58 | 1006.0 |
| 20260509183038 | 18 | 205 | 8.0 | 22.5 | 0.00 | 0.48 | 0.03 | 57 | 1006.2 |
| 20260509181544 | 19 | 203 | 6.4 | 16.1 | 0.00 | 0.48 | 0.03 | 58 | 1006.1 |
| 20260509180037 | 19 | 210 | 6.4 | 20.9 | 0.00 | 0.48 | 0.03 | 56 | 1005.9 |
| 20260509174534 | 18 | 210 | 4.8 | 16.1 | 0.00 | 0.48 | 0.03 | 60 | 1006.0 |
| 20260509173042 | 18 | 186 | 8.0 | 22.5 | 0.00 | 0.48 | 0.03 | 60 | 1006.3 |
| 20260509171544 | 18 | 198 | 6.4 | 14.5 | 0.00 | 0.48 | 0.03 | 59 | 1006.2 |
| 20260509170037 | 18 | 248 | 3.2 | 12.9 | 0.00 | 0.48 | 0.03 | 61 | 1006.2 |
| 20260509164537 | 17 | 156 | 4.8 | 20.9 | 0.00 | 0.48 | 0.03 | 64 | 1006.4 |
| 20260509163036 | 17 | 196 | 4.8 | 11.3 | 0.00 | 0.48 | 0.03 | 65 | 1006.2 |
| 20260509161538 | 17 | 204 | 4.8 | 12.9 | 0.00 | 0.48 | 0.03 | 66 | 1006.6 |
| 20260509160038 | 16 | 257 | 4.8 | 14.5 | 0.00 | 0.48 | 0.03 | 67 | 1006.8 |
| 20260509154538 | 16 | 221 | 4.8 | 9.7 | 0.00 | 0.48 | 0.03 | 71 | 1007.0 |
| 20260509153039 | 15 | 261 | 6.4 | 12.9 | 0.00 | 0.48 | 0.03 | 75 | 1007.0 |
| 20260509151537 | 16 | 217 | 1.6 | 12.9 | 0.00 | 0.48 | 0.03 | 75 | 1006.8 |
| 20260509150036 | 15 | 141 | 3.2 | 20.9 | 0.00 | 0.48 | 0.03 | 78 | 1006.8 |
| 20260509144615 | 14 | 273 | 3.2 | 9.7 | 0.00 | 0.48 | 0.03 | 82 | 1006.9 |
| 20260509143046 | 13 | 186 | 3.2 | 9.7 | 0.00 | 0.48 | 0.03 | 84 | 1006.8 |
| 20260509141541 | 13 | 281 | 1.6 | 11.3 | 0.00 | 0.48 | 0.03 | 84 | 1006.7 |
| 20260509140037 | 13 | 198 | 3.2 | 14.5 | 0.00 | 0.48 | 0.03 | 85 | 1007.0 |
| 20260509134537 | 13 | 226 | 1.6 | 9.7 | 0.00 | 0.48 | 0.03 | 87 | 1006.8 |
| 20260509133037 | 12 | 207 | 8.0 | 16.1 | 0.00 | 0.48 | 0.03 | 87 | 1006.9 |
| 20260509131541 | 12 | 226 | 3.2 | 9.7 | 0.00 | 0.48 | 0.03 | 90 | 1007.0 |
| 20260509130036 | 12 | 197 | 1.6 | 6.4 | 0.00 | 0.48 | 0.03 | 91 | 1006.8 |
| 20260509124557 | 12 | 251 | 1.6 | 6.4 | 0.00 | 0.48 | 0.03 | 91 | 1007.0 |
| 20260509123038 | 12 | 227 | 3.2 | 8.0 | 0.00 | 0.48 | 0.03 | 92 | 1007.1 |
| 20260509121536 | 12 | 0 | 0.0 | 9.7 | 0.00 | 0.48 | 0.03 | 92 | 1007.3 |